Toyonaka, Japan
Current Conditions -  °F | °C
As of 8:22 PM on Monday 26 Jan 2015 (Local Time) from RJOO Reporting Station
Rain Showers Rain Showers  
Wind Chill: 45°   Ceiling: 3000
Heat Index: 48°   Visibility: 2.8mi
Dew Point: 46°   Wind: 7mph
Humidity: 93%   Direction: 60°ENE
Pressure: 29.97"   Gusts: NA
Location:  34.78°N, 135.48°E
Report Text: RJOO 261122Z 06006KT 020V090 4500 SHRA BR FEW008 SCT015 BKN030 09/08 Q1015 RMK 1ST008 4CU015 6CU030 A2998
Loading
Personal Weather Stations






























Interactive Weather Map New forecast layout! Learn more

10-Day Weather Forecast

Advertisements
Track Severe Weather on mobile